Time;durP1;ratioP1;P1;durP2;ratioP2;P2;SDS_P1;SDS_P2;PMS_P1;PMS_P2;Temp;Humidity;BMP_temperature;BMP_pressure;BME280_temperature;BME280_humidity;BME280_pressure;Samples;Min_cycle;Max_cycle;Signal;HPM_P1;HPM_P2
2022/07/29 15:57:01;;;;;;;;;;;;;;;12.07;100.00;99386.88;5110032;27;20347;-87
2022/07/29 15:59:26;;;;;;;;;;;;;;;11.90;100.00;99393.09;5078866;28;19928;-87
2022/07/29 16:01:55;;;;;;;;;;;;;;;11.61;100.00;99399.94;5075030;28;19916;-84
2022/07/29 16:04:20;;;;;;;;;;;;;;;11.47;100.00;99398.03;5068432;28;19924;-85
2022/07/29 16:06:46;;;;;;;;;;;;;;;11.49;100.00;99395.28;5074284;28;19921;-89
2022/07/29 16:09:11;;;;;;;;;;;;;;;11.27;100.00;99396.44;5074347;28;19925;-87
2022/07/29 16:11:36;;;;;;;;;;;;;;;11.13;100.00;99401.59;5074131;28;20588;-89
2022/07/29 16:14:02;;;;;;;;;;;;;;;11.02;100.00;99392.38;5071161;28;19920;-88
2022/07/29 16:16:27;;;;;;;;;;;;;;;11.18;100.00;99392.44;5074072;28;19932;-88
2022/07/29 16:18:55;;;;;;;;;;;;;;;11.17;100.00;99398.69;5078186;28;19917;-86
2022/07/29 16:21:24;;;;;;;;;;;;;;;11.03;100.00;99393.25;5077666;28;19966;-86
2022/07/29 16:23:49;;;;;;;;;;;;;;;11.02;100.00;99388.88;5069699;28;20399;-86
2022/07/29 16:26:15;;;;;;;;;;;;;;;11.03;100.00;99387.94;5075089;28;19970;-86
2022/07/29 16:28:40;;;;;;;;;;;;;;;10.79;100.00;99396.19;5077247;28;20664;-86
2022/07/29 16:31:06;;;;;;;;;;;;;;;10.84;100.00;99393.31;5075505;28;19920;-86
2022/07/29 16:33:34;;;;;;;;;;;;;;;10.99;100.00;99394.31;5078559;28;20011;-87
2022/07/29 16:36:02;;;;;;;;;;;;;;;11.00;100.00;99388.94;5076312;28;19973;-87
2022/07/29 16:38:27;;;;;;;;;;;;;;;10.94;100.00;99394.56;5077814;28;19963;-87
2022/07/29 16:40:55;;;;;;;;;;;;;;;11.04;100.00;99393.16;5077488;28;20431;-88
2022/07/29 16:43:21;;;;;;;;;;;;;;;10.96;100.00;99397.13;5079180;28;19928;-88
2022/07/29 16:45:46;;;;;;;;;;;;;;;11.03;100.00;99399.41;5074876;28;19924;-88
2022/07/29 16:48:17;;;;;;;;;;;;;;;11.22;100.00;99406.41;5074239;28;20400;-87
2022/07/29 16:50:43;;;;;;;;;;;;;;;11.23;100.00;99406.34;5076844;28;19949;-86
2022/07/29 16:53:13;;;;;;;;;;;;;;;11.03;100.00;99412.66;5077301;28;20292;-86
2022/07/29 16:55:39;;;;;;;;;;;;;;;11.00;100.00;99412.81;5075010;28;19987;-87
2022/07/29 16:58:28;;;;;;;;;;;;;;;11.20;100.00;99408.28;5076292;28;19928;-86
2022/07/29 17:00:55;;;;;;;;;;;;;;;11.12;100.00;99411.34;5076751;28;20288;-86
2022/07/29 17:03:21;;;;;;;;;;;;;;;11.04;100.00;99417.03;5078052;28;19928;-89
2022/07/29 17:08:41;;;;;;;;;;;;;;;11.16;100.00;99414.69;5060377;28;19929;-86
2022/07/29 17:11:08;;;;;;;;;;;;;;;11.12;100.00;99423.72;5065137;28;19928;-87
2022/07/29 17:13:34;;;;;;;;;;;;;;;11.01;100.00;99416.31;5062767;28;20029;-88
2022/07/29 17:15:59;;;;;;;;;;;;;;;11.25;100.00;99414.22;5061037;28;20375;-89
2022/07/29 17:18:32;;;;;;;;;;;;;;;11.37;100.00;99421.53;5061965;28;19924;-87
2022/07/29 17:20:59;;;;;;;;;;;;;;;11.15;100.00;99424.41;5053475;28;19916;-87
2022/07/29 17:23:25;;;;;;;;;;;;;;;10.93;100.00;99423.78;5064824;28;19978;-86
2022/07/29 17:25:50;;;;;;;;;;;;;;;11.36;100.00;99430.44;5063860;28;19924;-88
2022/07/29 17:28:15;;;;;;;;;;;;;;;11.53;100.00;99418.91;5063733;28;19912;-88
2022/07/29 17:30:43;;;;;;;;;;;;;;;11.34;100.00;99424.31;5063566;28;20039;-87
2022/07/29 17:33:14;;;;;;;;;;;;;;;11.20;100.00;99427.72;5063314;28;20368;-88
2022/07/29 17:38:23;;;;;;;;;;;;;;;11.32;100.00;99442.13;5060156;28;20401;-87
2022/07/29 17:40:48;;;;;;;;;;;;;;;11.33;100.00;99427.94;5057237;28;19916;-86
2022/07/29 17:43:13;;;;;;;;;;;;;;;11.38;100.00;99436.50;5061226;28;19964;-87
2022/07/29 17:45:39;;;;;;;;;;;;;;;11.40;100.00;99439.94;5061936;28;19923;-91
2022/07/29 17:48:07;;;;;;;;;;;;;;;11.30;100.00;99441.34;5064385;28;19924;-90
2022/07/29 17:50:33;;;;;;;;;;;;;;;11.36;100.00;99442.81;5063853;28;19983;-86
2022/07/29 17:53:01;;;;;;;;;;;;;;;11.57;100.00;99438.22;5062911;28;20375;-89
2022/07/29 17:55:32;;;;;;;;;;;;;;;16.67;100.00;99434.75;5060802;28;19948;-89
2022/07/29 17:58:18;;;;;;;;;;;;;;;13.35;93.02;99439.84;5063715;28;20017;-89
2022/07/29 18:01:12;;;;;;;;;;;;;;;11.92;100.00;99446.13;5063091;28;19948;-92
2022/07/29 18:03:40;;;;;;;;;;;;;;;11.56;100.00;99455.91;5063644;28;19925;-86
2022/07/29 18:06:06;;;;;;;;;;;;;;;11.66;100.00;99458.94;5062642;28;19955;-90
2022/07/29 18:08:31;;;;;;;;;;;;;;;11.52;100.00;99464.09;5061874;28;19967;-87
2022/07/29 18:10:57;;;;;;;;;;;;;;;11.42;100.00;99469.03;5063147;28;19943;-89
2022/07/29 18:13:25;;;;;;;;;;;;;;;11.38;100.00;99478.09;5060404;28;19932;-89
2022/07/29 18:15:50;;;;;;;;;;;;;;;11.50;100.00;99474.81;5061511;28;20284;-91
2022/07/29 18:18:17;;;;;;;;;;;;;;;11.37;100.00;99477.22;5061209;28;19930;-90
2022/07/29 18:20:42;;;;;;;;;;;;;;;11.18;100.00;99476.44;5057461;28;19931;-86
2022/07/29 18:23:08;;;;;;;;;;;;;;;11.31;100.00;99476.69;5057159;28;20005;-89
2022/07/29 18:25:33;;;;;;;;;;;;;;;11.39;100.00;99483.34;5060743;28;19974;-90
2022/07/29 18:28:21;;;;;;;;;;;;;;;11.26;100.00;99485.75;5058209;28;19972;-91
2022/07/29 18:30:53;;;;;;;;;;;;;;;11.22;100.00;99496.59;5063907;28;20386;-90
2022/07/29 18:33:21;;;;;;;;;;;;;;;11.21;100.00;99503.66;5062411;28;19920;-89
2022/07/29 18:35:47;;;;;;;;;;;;;;;11.44;100.00;99493.72;5062708;28;19921;-92
2022/07/29 18:38:15;;;;;;;;;;;;;;;11.26;100.00;99504.31;5072752;28;19942;-90
2022/07/29 18:43:29;;;;;;;;;;;;;;;11.40;100.00;99511.56;5060661;28;19970;-90
2022/07/29 18:46:04;;;;;;;;;;;;;;;11.48;100.00;99512.97;5062029;28;19916;-91
2022/07/29 18:48:32;;;;;;;;;;;;;;;11.32;100.00;99512.91;5060274;28;20023;-90
2022/07/29 18:50:58;;;;;;;;;;;;;;;11.34;100.00;99519.81;5059142;28;19966;-88
2022/07/29 18:53:26;;;;;;;;;;;;;;;11.63;100.00;99523.66;5060053;28;20280;-89
2022/07/29 18:55:52;;;;;;;;;;;;;;;11.43;100.00;99529.97;5093421;28;19928;-88
2022/07/29 18:58:17;;;;;;;;;;;;;;;11.30;100.00;99541.28;5062032;28;19975;-88
2022/07/29 19:00:44;;;;;;;;;;;;;;;11.42;100.00;99540.66;5058605;28;20257;-89
2022/07/29 19:03:11;;;;;;;;;;;;;;;11.49;100.00;99543.84;5057158;28;20299;-88
2022/07/29 19:05:42;;;;;;;;;;;;;;;11.34;100.00;99543.69;5084550;28;19963;-90
2022/07/29 19:08:47;;;;;;;;;;;;;;;;;;;;;
2022/07/29 19:11:36;;;;;;;;;;;;;;;11.36;100.00;99552.47;5047148;28;19930;-90
2022/07/29 19:14:03;;;;;;;;;;;;;;;11.57;100.00;99557.63;5054058;28;20071;-87
2022/07/29 19:19:24;;;;;;;;;;;;;;;11.44;100.00;99562.69;5051209;28;19927;-90
2022/07/29 19:22:11;;;;;;;;;;;;;;;;;;;;;
2022/07/29 19:24:47;;;;;;;;;;;;;;;11.48;100.00;99580.16;5059192;28;19927;-90
2022/07/29 19:27:20;;;;;;;;;;;;;;;11.45;100.00;99581.19;5060581;28;19927;-88
2022/07/29 19:30:12;;;;;;;;;;;;;;;11.26;100.00;99581.22;5059442;28;19917;-89
2022/07/29 19:33:19;;;;;;;;;;;;;;;;;;;;;
2022/07/29 19:36:03;;;;;;;;;;;;;;;11.33;100.00;99603.00;5057785;28;19928;-88
2022/07/29 19:38:34;;;;;;;;;;;;;;;11.53;100.00;99598.50;5090648;28;20350;-92
2022/07/29 19:41:11;;;;;;;;;;;;;;;;;;;;;
2022/07/29 19:47:01;;;;;;;;;;;;;;;;;;;;;
2022/07/29 19:49:47;;;;;;;;;;;;;;;11.44;100.00;99631.66;5056963;28;19949;-88
2022/07/29 19:55:16;;;;;;;;;;;;;;;12.41;100.00;99626.75;5051014;28;20302;-90
2022/07/29 19:58:03;;;;;;;;;;;;;;;12.02;100.00;99629.72;5055716;28;19986;-90
2022/07/29 20:00:34;;;;;;;;;;;;;;;11.93;100.00;99644.31;5093509;28;20320;-92
2022/07/29 20:03:03;;;;;;;;;;;;;;;11.72;100.00;99641.75;5063747;28;20058;-93
2022/07/29 20:05:31;;;;;;;;;;;;;;;11.84;100.00;99640.31;5062022;28;20256;-89
2022/07/29 20:08:24;;;;;;;;;;;;;;;11.86;100.00;99640.22;5058344;28;19921;-90
2022/07/29 20:10:58;;;;;;;;;;;;;;;11.70;100.00;99643.63;5059936;28;20422;-90
2022/07/29 20:13:23;;;;;;;;;;;;;;;11.52;100.00;99655.16;5058148;28;19920;-86
2022/07/29 20:15:48;;;;;;;;;;;;;;;11.76;100.00;99645.13;5061183;28;20382;-86
2022/07/29 20:18:14;;;;;;;;;;;;;;;11.79;100.00;99648.50;5060315;28;19921;-87
2022/07/29 20:20:40;;;;;;;;;;;;;;;11.49;100.00;99661.47;5058464;28;19921;-90
2022/07/29 20:23:05;;;;;;;;;;;;;;;11.69;100.00;99656.97;5057160;28;19924;-89
2022/07/29 20:25:31;;;;;;;;;;;;;;;11.79;100.00;99663.53;5058916;28;19921;-89
2022/07/29 20:27:56;;;;;;;;;;;;;;;11.67;100.00;99667.66;5061209;28;19942;-91
2022/07/29 20:30:22;;;;;;;;;;;;;;;11.48;100.00;99665.06;5058444;28;19979;-89
2022/07/29 20:32:48;;;;;;;;;;;;;;;11.78;100.00;99668.00;5062843;28;20356;-88
2022/07/29 20:35:13;;;;;;;;;;;;;;;11.75;100.00;99668.16;5061141;28;20016;-87
2022/07/29 20:37:39;;;;;;;;;;;;;;;11.60;100.00;99676.88;5048132;28;20342;-90
2022/07/29 20:40:05;;;;;;;;;;;;;;;11.72;100.00;99670.94;5056104;28;19984;-86
2022/07/29 20:42:30;;;;;;;;;;;;;;;11.74;100.00;99679.72;5056612;28;19935;-85
2022/07/29 20:44:56;;;;;;;;;;;;;;;11.54;100.00;99672.72;5059693;28;19916;-85
2022/07/29 20:47:22;;;;;;;;;;;;;;;11.47;100.00;99678.41;5064296;28;19920;-92
2022/07/29 20:49:48;;;;;;;;;;;;;;;11.78;100.00;99675.97;5064297;28;20028;-92
2022/07/29 20:52:13;;;;;;;;;;;;;;;11.70;100.00;99675.47;5065873;28;19916;-90
2022/07/29 20:54:38;;;;;;;;;;;;;;;11.54;100.00;99679.84;5064083;28;19920;-90
2022/07/29 20:57:04;;;;;;;;;;;;;;;11.72;100.00;99688.69;5061162;28;20367;-89
2022/07/29 20:59:29;;;;;;;;;;;;;;;11.73;100.00;99690.41;5062713;28;19920;-85
2022/07/29 21:01:54;;;;;;;;;;;;;;;11.64;100.00;99686.41;5062611;28;19971;-87
2022/07/29 21:04:20;;;;;;;;;;;;;;;11.73;100.00;99682.44;5060714;28;20033;-88
2022/07/29 21:06:45;;;;;;;;;;;;;;;11.81;100.00;99683.78;5066052;28;20257;-87
2022/07/29 21:09:11;;;;;;;;;;;;;;;11.79;100.00;99680.34;5063084;28;19924;-92
2022/07/29 21:11:36;;;;;;;;;;;;;;;11.76;100.00;99696.41;5046537;28;19925;-89
2022/07/29 21:14:02;;;;;;;;;;;;;;;12.02;100.00;99690.78;5061788;28;19931;-92
2022/07/29 21:16:29;;;;;;;;;;;;;;;11.82;100.00;99701.44;5068641;28;19917;-96
2022/07/29 21:18:54;;;;;;;;;;;;;;;11.67;100.00;99696.00;5060622;28;19968;-90
2022/07/29 21:21:30;;;;;;;;;;;;;;;11.89;100.00;99695.81;5085956;28;19963;-91
2022/07/29 21:24:01;;;;;;;;;;;;;;;11.84;100.00;99708.44;5054935;28;19925;-90
2022/07/29 21:26:26;;;;;;;;;;;;;;;11.71;100.00;99708.19;5061268;28;20065;-90
2022/07/29 21:28:51;;;;;;;;;;;;;;;11.64;100.00;99705.81;5062583;28;19924;-93
2022/07/29 21:31:17;;;;;;;;;;;;;;;11.93;100.00;99708.88;5062285;28;20003;-91
2022/07/29 21:33:54;;;;;;;;;;;;;;;11.77;100.00;99713.19;5064455;28;20833;-92
2022/07/29 21:36:19;;;;;;;;;;;;;;;11.67;100.00;99712.78;5063437;28;20429;-92
2022/07/29 21:38:45;;;;;;;;;;;;;;;11.93;100.00;99718.66;5062010;28;19939;-94
2022/07/29 21:41:11;;;;;;;;;;;;;;;11.94;100.00;99723.03;5061208;28;19926;-91
2022/07/29 21:43:37;;;;;;;;;;;;;;;11.73;100.00;99720.47;5063923;28;19927;-88
2022/07/29 21:46:02;;;;;;;;;;;;;;;11.62;100.00;99723.63;5062764;28;20290;-88
2022/07/29 21:48:27;;;;;;;;;;;;;;;11.92;100.00;99723.09;5062416;28;19935;-89
2022/07/29 21:50:56;;;;;;;;;;;;;;;11.74;100.00;99727.50;5061292;28;19975;-91
2022/07/29 21:53:24;;;;;;;;;;;;;;;11.68;100.00;99725.13;5060386;28;19928;-91
2022/07/29 21:55:53;;;;;;;;;;;;;;;11.73;100.00;99730.22;5093643;27;19921;-90
2022/07/29 21:58:35;;;;;;;;;;;;;;;11.87;100.00;99732.19;5088298;28;19928;-91
2022/07/29 22:01:00;;;;;;;;;;;;;;;11.76;100.00;99730.94;5093795;28;19952;-88
2022/07/29 22:03:26;;;;;;;;;;;;;;;11.57;100.00;99733.59;5064509;28;19924;-93
2022/07/29 22:05:51;;;;;;;;;;;;;;;11.71;100.00;99735.59;5064087;28;19940;-91
2022/07/29 22:08:16;;;;;;;;;;;;;;;11.83;100.00;99744.75;5064133;28;20284;-93
2022/07/29 22:10:45;;;;;;;;;;;;;;;11.62;100.00;99750.16;5064895;28;19931;-96
2022/07/29 22:13:13;;;;;;;;;;;;;;;11.51;100.00;99743.66;5064682;28;20284;-93
2022/07/29 22:18:13;;;;;;;;;;;;;;;11.79;100.00;99748.47;5250039;23;20815;-93
2022/07/29 22:23:46;;;;;;;;;;;;;;;11.57;100.00;99759.28;5033388;28;19929;-91
2022/07/29 22:26:18;;;;;;;;;;;;;;;11.67;100.00;99759.72;5033236;28;20380;-92
2022/07/29 22:28:43;;;;;;;;;;;;;;;11.75;100.00;99758.41;5025587;28;19928;-91
2022/07/29 22:31:29;;;;;;;;;;;;;;;11.63;100.00;99766.94;5031260;28;19922;-90
2022/07/29 22:33:56;;;;;;;;;;;;;;;11.55;100.00;99764.66;5031077;28;19984;-91
2022/07/29 22:36:31;;;;;;;;;;;;;;;11.72;100.00;99773.63;5067201;23;19925;-90
2022/07/29 22:38:56;;;;;;;;;;;;;;;11.78;100.00;99768.88;4991807;28;20072;-86
2022/07/29 22:41:22;;;;;;;;;;;;;;;11.59;100.00;99768.88;4994703;28;20380;-89
2022/07/29 22:43:47;;;;;;;;;;;;;;;11.45;100.00;99777.50;4993967;28;19961;-93
2022/07/29 22:46:12;;;;;;;;;;;;;;;11.80;100.00;99769.66;4990077;28;19926;-86
2022/07/29 22:48:44;;;;;;;;;;;;;;;11.84;100.00;99773.03;4994293;28;20012;-91
2022/07/29 22:51:59;;;;;;;;;;;;;;;11.63;100.00;99769.59;5024998;23;19955;-93
2022/07/29 22:54:25;;;;;;;;;;;;;;;11.63;100.00;99770.47;5041137;28;19948;-93
2022/07/29 22:56:56;;;;;;;;;;;;;;;11.51;100.00;99773.69;5094850;23;19925;-92
2022/07/29 22:59:25;;;;;;;;;;;;;;;11.82;100.00;99773.09;5033407;28;20007;-93
2022/07/29 23:01:50;;;;;;;;;;;;;;;11.72;100.00;99774.47;5020846;28;20483;-90
2022/07/29 23:04:15;;;;;;;;;;;;;;;11.56;100.00;99776.97;5018458;28;20012;-93
2022/07/29 23:06:43;;;;;;;;;;;;;;;11.74;100.00;99769.97;5018555;28;20276;-89
2022/07/29 23:09:17;;;;;;;;;;;;;;;11.95;100.00;99776.06;5019723;28;19925;-91
2022/07/29 23:11:42;;;;;;;;;;;;;;;11.79;100.00;99770.59;5024228;28;19973;-95
2022/07/29 23:14:07;;;;;;;;;;;;;;;11.71;100.00;99777.19;5022371;28;19960;-91
2022/07/29 23:16:45;;;;;;;;;;;;;;;11.92;100.00;99764.75;5020562;28;20001;-89
2022/07/29 23:19:10;;;;;;;;;;;;;;;11.86;100.00;99765.00;5036050;28;19924;-89
2022/07/29 23:21:36;;;;;;;;;;;;;;;11.76;100.00;99760.13;5020979;28;19921;-90
2022/07/29 23:24:01;;;;;;;;;;;;;;;15.40;100.00;99750.66;5022374;28;19921;-85
2022/07/29 23:26:26;;;;;;;;;;;;;;;14.28;100.00;99747.69;5020986;28;19922;-90
2022/07/29 23:28:52;;;;;;;;;;;;;;;12.73;100.00;99757.09;5022060;28;19929;-88
2022/07/29 23:31:17;;;;;;;;;;;;;;;12.31;100.00;99753.06;5025938;28;19971;-90
2022/07/29 23:33:42;;;;;;;;;;;;;;;12.25;100.00;99745.38;5024836;28;19925;-88
2022/07/29 23:36:08;;;;;;;;;;;;;;;12.51;100.00;99749.41;5034014;28;20022;-91
2022/07/29 23:38:33;;;;;;;;;;;;;;;12.34;100.00;99744.94;5034780;28;19925;-93
2022/07/29 23:41:07;;;;;;;;;;;;;;;12.10;100.00;99742.56;5025403;28;19963;-91
2022/07/29 23:43:58;;;;;;;;;;;;;;;13.51;100.00;99738.75;5024747;28;19929;-88
2022/07/29 23:46:23;;;;;;;;;;;;;;;15.12;100.00;99740.88;5035147;28;20018;-83
2022/07/29 23:49:22;;;;;;;;;;;;;;;;;;;;;
2022/07/29 23:54:46;;;;;;;;;;;;;;;11.57;100.00;99744.22;5026165;22;19941;-87
2022/07/29 23:57:12;;;;;;;;;;;;;;;11.54;100.00;99746.16;4981273;28;19987;-85
